Time;durP1;ratioP1;P1;durP2;ratioP2;P2;SDS_P1;SDS_P2;PMS_P1;PMS_P2;Temp;Humidity;BMP_temperature;BMP_pressure;BME280_temperature;BME280_humidity;BME280_pressure;Samples;Min_cycle;Max_cycle;Signal;HPM_P1;HPM_P2
2022/03/02 00:00:01;;;;;;;0.68;0.68;;;;;;;-5.85;62.52;100414.41;5103509;28;20032;-81
2022/03/02 00:02:30;;;;;;;0.50;0.50;;;;;;;-5.88;62.72;100415.47;5115714;28;20059;-82
2022/03/02 00:04:57;;;;;;;0.68;0.68;;;;;;;-5.94;62.60;100418.56;5085469;28;20510;-83
2022/03/02 00:07:24;;;;;;;0.70;0.70;;;;;;;-6.07;62.75;100415.06;5077985;28;20055;-81
2022/03/02 00:09:51;;;;;;;0.63;0.63;;;;;;;-6.09;62.68;100415.16;5096162;28;20542;-81
2022/03/02 00:12:19;;;;;;;0.77;0.77;;;;;;;-6.22;62.70;100402.00;5092730;28;20510;-82
2022/03/02 00:14:46;;;;;;;0.80;0.80;;;;;;;-6.25;63.27;100409.25;5092696;28;20052;-82
2022/03/02 00:17:14;;;;;;;0.52;0.52;;;;;;;-6.24;63.24;100401.25;5074457;28;20489;-82
2022/03/02 00:19:41;;;;;;;0.50;0.50;;;;;;;-6.11;62.79;100410.00;5093598;28;20056;-83
2022/03/02 00:22:10;;;;;;;0.65;0.65;;;;;;;-6.13;62.77;100411.91;5093860;28;20097;-82
2022/03/02 00:24:37;;;;;;;0.77;0.77;;;;;;;-6.14;62.81;100410.22;5041695;28;20498;-83
2022/03/02 00:27:05;;;;;;;0.70;0.70;;;;;;;-6.12;62.84;100405.69;5092771;28;20055;-83
2022/03/02 00:29:32;;;;;;;0.80;0.80;;;;;;;-6.12;63.01;100403.06;5075056;28;20044;-83
2022/03/02 00:32:02;;;;;;;0.75;0.75;;;;;;;-6.04;62.97;100401.72;5093847;28;20078;-83
2022/03/02 00:34:29;;;;;;;0.63;0.63;;;;;;;-6.17;63.05;100399.91;5075670;28;20490;-83
2022/03/02 00:36:59;;;;;;;0.70;0.70;;;;;;;-6.24;63.05;100409.16;5077521;28;20052;-83
2022/03/02 00:39:26;;;;;;;0.68;0.68;;;;;;;-6.29;63.32;100410.41;5094955;28;20130;-82
2022/03/02 00:41:53;;;;;;;0.70;0.70;;;;;;;-6.27;63.39;100408.53;5093215;28;20060;-84
2022/03/02 00:44:23;;;;;;;0.60;0.60;;;;;;;-6.33;63.42;100388.72;5075930;28;20044;-83
2022/03/02 00:46:50;;;;;;;0.70;0.70;;;;;;;-6.33;63.52;100396.63;5075468;28;20140;-83
2022/03/02 00:49:22;;;;;;;0.60;0.60;;;;;;;-6.30;63.40;100379.81;5059612;28;20567;-83
2022/03/02 00:51:49;;;;;;;0.60;0.60;;;;;;;-6.25;63.50;100377.72;5093773;28;20097;-83
2022/03/02 00:54:16;;;;;;;0.77;0.77;;;;;;;-6.12;63.01;100371.53;5041546;28;20513;-83
2022/03/02 00:56:49;;;;;;;0.55;0.55;;;;;;;-6.21;63.17;100380.03;5091825;28;20068;-83
2022/03/02 00:59:17;;;;;;;0.57;0.57;;;;;;;-6.35;63.81;100375.72;5073955;28;20490;-83
2022/03/02 01:01:47;;;;;;;0.98;0.98;;;;;;;-6.32;64.06;100380.75;5091519;28;20043;-82
2022/03/02 01:04:19;;;;;;;0.60;0.60;;;;;;;-6.37;64.01;100377.59;5056670;28;20050;-82
2022/03/02 01:06:47;;;;;;;0.63;0.63;;;;;;;-6.41;64.09;100386.63;5091221;28;20510;-82
2022/03/02 01:09:17;;;;;;;0.60;0.60;;;;;;;-6.37;64.29;100374.13;5091184;28;20044;-83
2022/03/02 01:11:46;;;;;;;0.63;0.63;;;;;;;-6.38;64.29;100368.06;5091550;28;20044;-82
2022/03/02 01:14:14;;;;;;;0.73;0.73;;;;;;;-6.41;64.23;100370.03;5090729;28;20075;-81
2022/03/02 01:16:42;;;;;;;0.60;0.60;;;;;;;-6.44;64.24;100372.84;5091525;28;20045;-82
2022/03/02 01:19:11;;;;;;;0.50;0.50;;;;;;;-6.46;63.88;100370.31;5091536;28;20044;-82
2022/03/02 01:21:41;;;;;;;0.75;0.75;;;;;;;-6.41;63.90;100373.47;5073569;28;20055;-83
2022/03/02 01:24:09;;;;;;;0.60;0.60;;;;;;;-6.40;63.57;100372.56;5091383;28;20082;-82
2022/03/02 01:26:36;;;;;;;0.65;0.65;;;;;;;-6.37;63.56;100374.97;5091439;28;20139;-82
2022/03/02 01:29:06;;;;;;;0.68;0.68;;;;;;;-6.35;63.11;100374.88;5073572;28;20060;-83
2022/03/02 01:31:33;;;;;;;0.65;0.65;;;;;;;-6.39;63.03;100370.78;5073161;28;20055;-82
2022/03/02 01:34:03;;;;;;;0.57;0.57;;;;;;;-6.42;62.94;100363.09;5073176;28;20697;-81
2022/03/02 01:36:30;;;;;;;0.70;0.70;;;;;;;-6.56;63.28;100351.72;5072859;28;20452;-82
2022/03/02 01:38:57;;;;;;;0.70;0.70;;;;;;;-6.56;63.27;100364.00;5091345;28;20052;-80
2022/03/02 01:41:26;;;;;;;0.68;0.68;;;;;;;-6.58;63.47;100355.41;5072908;28;20101;-82
2022/03/02 01:43:54;;;;;;;0.57;0.57;;;;;;;-6.60;63.59;100355.50;5072966;28;20760;-82
2022/03/02 01:46:23;;;;;;;0.50;0.50;;;;;;;-6.67;63.72;100348.97;5091101;28;20048;-82
2022/03/02 01:48:51;;;;;;;0.70;0.70;;;;;;;-6.67;64.39;100343.72;5073338;28;20078;-83
2022/03/02 01:51:18;;;;;;;0.88;0.88;;;;;;;-6.74;64.55;100347.69;5091225;28;20052;-81
2022/03/02 01:53:46;;;;;;;0.75;0.75;;;;;;;-6.73;64.84;100338.88;5091361;28;20121;-82
2022/03/02 01:56:17;;;;;;;0.70;0.70;;;;;;;-6.66;64.86;100340.16;5073381;28;20044;-83
2022/03/02 01:58:45;;;;;;;0.70;0.70;;;;;;;-6.73;64.94;100328.38;5091170;28;20156;-82
2022/03/02 02:01:18;;;;;;;0.85;0.85;;;;;;;-6.80;65.30;100330.56;5073052;28;20052;-82
2022/03/02 02:03:46;;;;;;;0.73;0.73;;;;;;;-6.72;65.10;100326.59;5091543;28;20056;-83
2022/03/02 02:06:15;;;;;;;0.70;0.70;;;;;;;-6.66;64.40;100337.53;5072469;28;20055;-82
2022/03/02 02:08:42;;;;;;;0.63;0.63;;;;;;;-6.68;64.22;100326.28;5091107;28;20059;-82
2022/03/02 02:11:11;;;;;;;0.80;0.80;;;;;;;-6.69;64.22;100327.22;5090896;28;20054;-81
2022/03/02 02:13:39;;;;;;;0.90;0.90;;;;;;;-6.76;64.83;100321.53;5091415;28;20418;-82
2022/03/02 02:16:07;;;;;;;0.63;0.63;;;;;;;-6.78;64.93;100326.03;5091078;28;20534;-82
2022/03/02 02:18:35;;;;;;;0.70;0.70;;;;;;;-6.82;65.21;100323.72;5073012;28;20418;-82
2022/03/02 02:21:05;;;;;;;0.55;0.55;;;;;;;-6.83;65.36;100322.88;5090951;28;20449;-82
2022/03/02 02:23:32;;;;;;;0.50;0.50;;;;;;;-6.89;65.56;100311.94;5072657;28;20489;-83
2022/03/02 02:25:59;;;;;;;0.70;0.70;;;;;;;-6.92;65.61;100310.34;5074184;28;20059;-82
2022/03/02 02:28:30;;;;;;;0.70;0.70;;;;;;;-6.87;65.51;100313.50;5076358;28;20105;-82
2022/03/02 02:30:59;;;;;;;0.70;0.70;;;;;;;-6.92;65.48;100312.97;5094570;28;20050;-82
2022/03/02 02:33:27;;;;;;;0.80;0.80;;;;;;;-7.05;65.85;100310.31;5094534;28;20143;-81
2022/03/02 02:35:54;;;;;;;0.77;0.77;;;;;;;-7.07;66.18;100311.34;5076749;28;20418;-82
2022/03/02 02:38:22;;;;;;;0.68;0.68;;;;;;;-7.06;65.56;100306.03;5094526;28;20063;-82
2022/03/02 02:40:51;;;;;;;0.50;0.50;;;;;;;-6.98;64.96;100300.28;5094208;28;20052;-81
2022/03/02 02:43:23;;;;;;;0.50;0.50;;;;;;;-6.96;64.60;100298.41;5094547;28;20072;-81
2022/03/02 02:45:51;;;;;;;0.73;0.73;;;;;;;-6.89;64.20;100301.44;5094304;28;20052;-80
2022/03/02 02:48:21;;;;;;;0.60;0.60;;;;;;;-6.87;64.63;100295.13;5093730;28;20052;-81
2022/03/02 02:50:49;;;;;;;0.73;0.73;;;;;;;-6.92;65.50;100291.16;5075946;28;20040;-81
2022/03/02 02:53:16;;;;;;;0.80;0.80;;;;;;;-6.97;66.02;100287.03;5075833;28;20453;-81
2022/03/02 02:55:46;;;;;;;0.80;0.80;;;;;;;-6.99;65.69;100293.31;5095259;28;20044;-81
2022/03/02 02:58:14;;;;;;;0.75;0.75;;;;;;;-7.09;65.78;100287.00;5095656;28;20047;-81
2022/03/02 03:00:44;;;;;;;0.70;0.70;;;;;;;-7.11;66.14;100287.13;5076480;28;20040;-81
2022/03/02 03:03:12;;;;;;;0.77;0.77;;;;;;;-7.09;66.16;100276.50;5093949;28;20040;-83
2022/03/02 03:05:40;;;;;;;0.77;0.77;;;;;;;-7.13;66.15;100282.91;5094001;28;20067;-80
2022/03/02 03:08:11;;;;;;;0.90;0.90;;;;;;;-7.10;65.69;100283.53;5093846;28;20101;-84
2022/03/02 03:10:40;;;;;;;0.60;0.60;;;;;;;-7.13;65.42;100275.88;5072748;28;20101;-84
2022/03/02 03:13:07;;;;;;;0.60;0.60;;;;;;;-7.15;65.27;100269.88;5075920;28;20050;-81
2022/03/02 03:15:35;;;;;;;0.77;0.77;;;;;;;-7.15;64.39;100276.91;5093199;28;20080;-81
2022/03/02 03:18:03;;;;;;;0.73;0.73;;;;;;;-7.07;63.99;100272.84;5093846;28;20052;-82
2022/03/02 03:20:31;;;;;;;0.70;0.70;;;;;;;-7.03;63.58;100263.81;5093366;28;20097;-83
2022/03/02 03:23:00;;;;;;;0.70;0.70;;;;;;;-7.13;63.94;100254.03;5074509;28;20490;-84
2022/03/02 03:25:28;;;;;;;0.60;0.60;;;;;;;-7.15;64.58;100258.53;5075108;28;20052;-82
2022/03/02 03:27:56;;;;;;;0.70;0.70;;;;;;;-7.24;64.82;100252.09;5092098;28;20461;-82
2022/03/02 03:30:25;;;;;;;0.60;0.60;;;;;;;-7.30;65.25;100252.50;5074166;28;20222;-83
2022/03/02 03:32:53;;;;;;;0.73;0.73;;;;;;;-7.34;65.72;100253.66;5085194;28;20387;-82
2022/03/02 03:35:22;;;;;;;0.60;0.60;;;;;;;-7.32;65.67;100249.16;5085695;28;20048;-81
2022/03/02 03:37:49;;;;;;;0.80;0.80;;;;;;;-7.32;65.81;100251.75;5069782;28;20051;-83
2022/03/02 03:40:17;;;;;;;0.70;0.70;;;;;;;-7.39;66.37;100248.72;5080771;28;20076;-82
2022/03/02 03:42:45;;;;;;;0.77;0.77;;;;;;;-7.45;66.72;100246.47;5079831;28;20057;-83
2022/03/02 03:45:13;;;;;;;0.60;0.60;;;;;;;-7.53;67.01;100248.75;5053634;28;20049;-80
2022/03/02 03:47:43;;;;;;;0.65;0.65;;;;;;;-7.55;67.07;100250.63;5038682;28;20090;-82
2022/03/02 03:50:11;;;;;;;0.65;0.65;;;;;;;-7.58;67.11;100250.84;5073050;28;20054;-82
2022/03/02 03:52:39;;;;;;;0.70;0.70;;;;;;;-7.50;66.89;100244.16;5022819;28;20139;-84
2022/03/02 03:55:11;;;;;;;0.88;0.88;;;;;;;-7.48;66.77;100255.38;4827937;28;10001090;-83
2022/03/02 03:57:39;;;;;;;0.90;0.90;;;;;;;-7.47;66.96;100245.72;5055139;28;20248;-85
2022/03/02 04:00:10;;;;;;;0.90;0.90;;;;;;;-7.43;66.53;100244.59;5089894;28;20094;-83
2022/03/02 04:02:37;;;;;;;0.80;0.80;;;;;;;-7.34;66.43;100237.91;5071497;28;20067;-83
2022/03/02 04:05:05;;;;;;;0.80;0.80;;;;;;;-7.36;66.00;100251.13;5072098;28;20063;-84
2022/03/02 04:07:32;;;;;;;0.82;0.82;;;;;;;-7.42;65.79;100251.53;5089786;28;20133;-84
2022/03/02 04:09:59;;;;;;;0.90;0.90;;;;;;;-7.51;65.83;100247.72;5090927;28;20139;-84
2022/03/02 04:12:26;;;;;;;0.70;0.70;;;;;;;-7.47;65.30;100243.09;5107332;28;20028;-82
2022/03/02 04:14:55;;;;;;;0.70;0.70;;;;;;;-7.48;65.42;100260.63;5114793;28;20413;-82
2022/03/02 04:17:23;;;;;;;0.70;0.70;;;;;;;-7.52;65.46;100243.44;5079588;28;20140;-82
2022/03/02 04:19:50;;;;;;;0.65;0.65;;;;;;;-7.54;65.70;100250.53;5077863;28;20044;-83
2022/03/02 04:22:18;;;;;;;0.70;0.70;;;;;;;-7.59;66.00;100249.16;5094172;28;20052;-83
2022/03/02 04:24:47;;;;;;;0.93;0.93;;;;;;;-7.60;66.32;100250.09;5074469;28;20059;-84
2022/03/02 04:27:14;;;;;;;0.80;0.80;;;;;;;-7.62;66.34;100244.97;5092824;28;20059;-83
2022/03/02 04:29:43;;;;;;;0.90;0.90;;;;;;;-7.52;65.87;100240.81;5057954;28;20052;-83
2022/03/02 04:32:11;;;;;;;0.80;0.80;;;;;;;-7.39;65.06;100234.75;5092702;28;20051;-83
2022/03/02 04:34:38;;;;;;;0.82;0.82;;;;;;;-7.46;65.60;100234.31;5074683;28;20070;-83
2022/03/02 04:37:05;;;;;;;0.75;0.75;;;;;;;-7.48;65.94;100230.94;5092594;28;20052;-84
2022/03/02 04:39:32;;;;;;;0.90;0.90;;;;;;;-7.45;66.05;100230.75;5092430;28;20052;-83
2022/03/02 04:42:10;;;;;;;0.90;0.90;;;;;;;-7.38;65.67;100231.19;5092837;28;20421;-83
2022/03/02 04:44:37;;;;;;;0.90;0.90;;;;;;;-7.37;65.17;100231.06;5092274;28;20044;-83
2022/03/02 04:47:10;;;;;;;0.95;0.95;;;;;;;-7.35;65.17;100237.06;5074026;28;20048;-83
2022/03/02 04:49:40;;;;;;;0.82;0.82;;;;;;;-7.40;65.21;100231.28;5073074;28;20056;-83
2022/03/02 04:52:10;;;;;;;0.70;0.70;;;;;;;-7.33;65.43;100231.75;5073972;28;20051;-84
2022/03/02 04:57:26;;;;;;;0.75;0.75;;;;;;;-7.30;65.52;100235.00;5052039;28;20077;-83
2022/03/02 04:59:54;;;;;;;0.77;0.77;;;;;;;-7.20;65.63;100235.22;5080629;28;20059;-82
2022/03/02 05:02:21;;;;;;;0.90;0.90;;;;;;;-7.12;65.55;100229.47;5073635;28;20131;-83
2022/03/02 05:04:52;;;;;;;0.73;0.73;;;;;;;-6.99;65.22;100222.47;5073713;28;20048;-83
2022/03/02 05:07:19;;;;;;;0.80;0.80;;;;;;;-6.83;64.77;100225.75;5061648;28;20129;-83
2022/03/02 05:09:46;;;;;;;0.70;0.70;;;;;;;-6.66;64.19;100218.50;5056312;28;20423;-83
2022/03/02 05:12:14;;;;;;;0.80;0.80;;;;;;;-6.54;63.92;100221.13;5061970;28;20690;-83
2022/03/02 05:14:41;;;;;;;0.82;0.82;;;;;;;-6.45;63.84;100217.03;5068463;28;20048;-83
2022/03/02 05:17:08;;;;;;;0.80;0.80;;;;;;;-6.30;63.63;100219.53;5077711;28;20490;-82
2022/03/02 05:19:39;;;;;;;0.70;0.70;;;;;;;-6.26;63.51;100215.75;5061417;28;20533;-83
2022/03/02 05:22:06;;;;;;;0.93;0.93;;;;;;;-6.08;62.89;100211.81;5086263;28;20063;-83
2022/03/02 05:24:34;;;;;;;0.82;0.82;;;;;;;-6.09;62.36;100211.94;5063165;28;20044;-82
2022/03/02 05:27:01;;;;;;;0.70;0.70;;;;;;;-6.12;62.23;100221.72;5077629;28;20052;-81
2022/03/02 05:29:28;;;;;;;0.70;0.70;;;;;;;-6.16;62.35;100209.75;5087264;28;20059;-81
2022/03/02 05:31:55;;;;;;;0.60;0.60;;;;;;;-6.05;62.41;100221.28;5085773;28;20055;-83
2022/03/02 05:34:22;;;;;;;0.50;0.50;;;;;;;-6.04;62.76;100209.84;5082986;28;20068;-83
2022/03/02 05:36:49;;;;;;;0.60;0.60;;;;;;;-5.98;62.63;100201.50;5079003;28;20059;-81
2022/03/02 05:39:16;;;;;;;0.90;0.90;;;;;;;-5.95;62.54;100191.63;5076138;28;20051;-82
2022/03/02 05:41:44;;;;;;;0.57;0.57;;;;;;;-5.84;62.44;100197.88;5060831;28;20086;-82
2022/03/02 05:44:12;;;;;;;0.70;0.70;;;;;;;-5.76;62.21;100198.16;5076050;28;20048;-82
2022/03/02 05:46:39;;;;;;;0.85;0.85;;;;;;;-5.73;62.06;100198.75;5074611;28;20052;-82
2022/03/02 05:49:31;;;;;;;0.70;0.70;;;;;;;-5.64;61.91;100196.44;5075300;28;20056;-81
2022/03/02 05:51:58;;;;;;;0.90;0.90;;;;;;;-5.57;61.95;100195.00;5076114;28;20059;-83
2022/03/02 05:54:26;;;;;;;0.80;0.80;;;;;;;-5.50;61.50;100198.88;5049608;28;20087;-83
2022/03/02 05:56:53;;;;;;;0.60;0.60;;;;;;;-5.46;61.19;100189.81;5079980;28;20090;-81
2022/03/02 05:59:20;;;;;;;0.70;0.70;;;;;;;-5.28;61.01;100196.34;5080562;28;20061;-84
2022/03/02 06:01:49;;;;;;;0.75;0.75;;;;;;;-5.12;60.66;100192.56;5081538;28;20048;-84
2022/03/02 06:04:16;;;;;;;0.75;0.75;;;;;;;-4.93;59.79;100187.59;5089451;28;20083;-83
2022/03/02 06:06:44;;;;;;;0.82;0.82;;;;;;;-4.81;59.71;100183.16;5062370;28;20122;-82
2022/03/02 06:09:11;;;;;;;0.70;0.70;;;;;;;-4.75;59.56;100169.56;5084900;28;20051;-83
2022/03/02 06:11:39;;;;;;;0.68;0.68;;;;;;;-4.54;59.25;100180.22;5073212;28;20151;-83
2022/03/02 06:14:08;;;;;;;0.60;0.60;;;;;;;-4.45;58.63;100170.78;5089216;28;20082;-82
2022/03/02 06:16:42;;;;;;;0.82;0.82;;;;;;;-4.33;58.24;100161.88;5076025;28;20116;-81
2022/03/02 06:19:09;;;;;;;0.60;0.60;;;;;;;-4.17;58.15;100169.44;5071471;28;20066;-83
2022/03/02 06:21:40;;;;;;;0.60;0.60;;;;;;;-3.94;57.80;100171.06;5082583;28;20051;-83
2022/03/02 06:24:08;;;;;;;0.70;0.70;;;;;;;-3.72;57.27;100164.91;5084648;28;20048;-83
2022/03/02 06:26:41;;;;;;;0.60;0.60;;;;;;;-3.54;56.79;100167.84;5091078;28;20048;-82
2022/03/02 06:29:11;;;;;;;0.70;0.70;;;;;;;-3.36;56.75;100160.22;5073310;28;20083;-82
2022/03/02 06:31:40;;;;;;;0.68;0.68;;;;;;;-3.25;56.33;100161.13;5090500;28;20048;-83
2022/03/02 06:34:07;;;;;;;0.82;0.82;;;;;;;-3.06;56.21;100169.19;5091064;28;20139;-83
2022/03/02 06:36:34;;;;;;;0.80;0.80;;;;;;;-2.88;55.82;100169.47;5085072;28;20079;-83
2022/03/02 06:39:08;;;;;;;0.68;0.68;;;;;;;-2.78;55.32;100170.34;5053813;28;20143;-82
2022/03/02 06:41:57;;;;;;;0.90;0.90;;;;;;;-2.66;54.99;100164.03;5070804;28;20059;-84
2022/03/02 06:44:27;;;;;;;0.80;0.80;;;;;;;-2.57;54.69;100169.50;5053114;28;20044;-83
2022/03/02 06:47:06;;;;;;;0.63;0.63;;;;;;;-2.46;54.82;100164.94;5071064;28;20048;-82
2022/03/02 06:50:05;;;;;;;0.80;0.80;;;;;;;-2.42;54.40;100147.00;5070166;28;20101;-83
2022/03/02 06:52:43;;;;;;;0.70;0.70;;;;;;;-2.30;54.07;100151.25;5078781;28;20052;-84
2022/03/02 06:55:15;;;;;;;0.90;0.90;;;;;;;-2.14;53.31;100150.72;4711787;28;10000343;-84
2022/03/02 06:57:51;;;;;;;0.90;0.90;;;;;;;-2.01;52.74;100148.66;5083097;28;20280;-82
2022/03/02 07:00:25;;;;;;;0.63;0.63;;;;;;;-1.91;52.51;100143.41;5075945;28;20156;-84
2022/03/02 07:03:04;;;;;;;0.73;0.73;;;;;;;-1.77;51.46;100140.38;5071214;28;20052;-83
2022/03/02 07:05:33;;;;;;;0.90;0.90;;;;;;;-1.71;50.91;100143.44;5050896;28;20045;-83
2022/03/02 07:08:03;;;;;;;1.15;1.05;;;;;;;-1.73;51.10;100140.09;5052333;28;20345;-84
2022/03/02 07:10:34;;;;;;;0.88;0.88;;;;;;;-1.64;50.78;100141.91;5058927;28;20093;-83
2022/03/02 07:13:03;;;;;;;0.82;0.82;;;;;;;-1.59;50.60;100150.28;5090985;28;20172;-81
2022/03/02 07:15:31;;;;;;;0.90;0.90;;;;;;;-1.58;49.62;100134.25;5086166;28;20052;-82
2022/03/02 07:17:59;;;;;;;1.00;1.00;;;;;;;-1.38;49.87;100140.38;5090830;28;20043;-83
2022/03/02 07:20:27;;;;;;;0.90;0.90;;;;;;;-1.23;49.65;100139.97;5071944;28;20052;-85
2022/03/02 07:22:56;;;;;;;0.90;0.90;;;;;;;-1.07;49.46;100132.25;5072472;28;20043;-83
2022/03/02 07:25:29;;;;;;;0.85;0.85;;;;;;;-0.96;49.21;100129.47;5083015;28;20040;-85
2022/03/02 07:27:57;;;;;;;0.90;0.90;;;;;;;-0.87;48.96;100128.59;5086791;28;20062;-82
2022/03/02 07:30:27;;;;;;;0.80;0.80;;;;;;;-0.73;48.50;100129.13;5088372;28;20048;-83
2022/03/02 07:32:57;;;;;;;0.90;0.90;;;;;;;-0.64;48.35;100125.59;5055372;28;20040;-83
2022/03/02 07:35:25;;;;;;;0.93;0.93;;;;;;;-0.56;48.23;100125.69;5055468;28;20109;-82
2022/03/02 07:37:54;;;;;;;0.90;0.90;;;;;;;-0.47;47.85;100127.50;5089886;28;20052;-82
2022/03/02 07:40:21;;;;;;;1.10;1.10;;;;;;;-0.32;47.54;100132.31;5089005;28;20048;-84
2022/03/02 07:42:52;;;;;;;0.90;0.90;;;;;;;-0.14;47.23;100125.25;5064072;28;20056;-84
2022/03/02 07:45:20;;;;;;;0.90;0.90;;;;;;;-0.06;46.85;100127.16;5078594;28;20051;-83
2022/03/02 07:47:47;;;;;;;0.90;0.90;;;;;;;0.13;46.40;100126.22;5065877;28;20055;-83
2022/03/02 07:50:16;;;;;;;1.05;1.05;;;;;;;0.28;46.06;100114.09;5082701;28;20056;-84
2022/03/02 07:52:48;;;;;;;1.00;1.00;;;;;;;0.40;45.44;100120.81;5085673;28;20040;-82
2022/03/02 07:55:17;;;;;;;0.80;0.80;;;;;;;0.62;45.44;100121.38;5088820;28;20040;-83
2022/03/02 07:57:55;;;;;;;0.90;0.90;;;;;;;0.98;44.93;100116.81;5072549;28;20473;-84
2022/03/02 08:00:23;;;;;;;0.90;0.90;;;;;;;1.20;44.46;100107.50;5066900;28;20145;-84
2022/03/02 08:02:53;;;;;;;0.90;0.90;;;;;;;1.53;44.67;100105.03;5087290;28;20817;-83
2022/03/02 08:05:21;;;;;;;0.90;0.90;;;;;;;1.88;44.04;100108.50;5056748;28;20045;-83
2022/03/02 08:07:49;;;;;;;1.10;1.10;;;;;;;2.14;42.81;100097.75;5050991;28;20756;-84
2022/03/02 08:10:18;;;;;;;1.00;1.00;;;;;;;2.32;43.11;100094.94;5069588;28;20095;-84
2022/03/02 08:12:45;;;;;;;0.82;0.82;;;;;;;2.74;41.91;100096.66;5054071;28;20127;-82
2022/03/02 08:15:13;;;;;;;0.90;0.90;;;;;;;2.82;41.29;100089.47;5078452;28;20060;-82
2022/03/02 08:17:42;;;;;;;1.05;1.05;;;;;;;3.00;41.06;100085.78;5073141;28;20047;-83
2022/03/02 08:20:11;;;;;;;1.10;1.10;;;;;;;3.45;40.42;100087.03;5065797;28;20048;-80
2022/03/02 08:22:48;;;;;;;1.00;1.00;;;;;;;3.84;39.74;100081.66;5090011;28;20056;-84
2022/03/02 08:25:20;;;;;;;1.05;1.05;;;;;;;4.25;39.24;100077.94;5064089;28;20053;-83
2022/03/02 08:27:53;;;;;;;1.00;1.00;;;;;;;4.57;38.75;100071.53;5090384;28;20050;-84
2022/03/02 08:30:20;;;;;;;1.00;1.00;;;;;;;4.88;37.95;100066.06;5082415;28;20556;-84
2022/03/02 08:32:48;;;;;;;0.90;0.90;;;;;;;5.16;37.19;100060.94;5092375;28;20047;-83
2022/03/02 08:35:18;;;;;;;1.00;1.00;;;;;;;5.28;37.10;100055.13;5069266;28;20090;-83
2022/03/02 08:37:47;;;;;;;1.00;1.00;;;;;;;5.31;36.56;100034.19;5071746;28;20076;-84
2022/03/02 08:40:15;;;;;;;1.10;1.10;;;;;;;5.56;36.35;100056.13;5054000;28;20110;-83
2022/03/02 08:42:49;;;;;;;1.00;1.00;;;;;;;5.86;35.54;100043.53;5072141;28;20102;-84
2022/03/02 08:45:16;;;;;;;1.00;1.00;;;;;;;6.21;35.35;100034.88;5054048;28;20056;-83
2022/03/02 08:47:45;;;;;;;1.00;1.00;;;;;;;6.25;34.26;100034.31;5037866;28;20044;-84
2022/03/02 08:50:12;;;;;;;1.00;1.00;;;;;;;6.12;34.29;100036.00;5072039;28;20079;-83
2022/03/02 08:52:39;;;;;;;0.95;0.95;;;;;;;6.24;34.33;100032.63;5071922;28;20087;-83
2022/03/02 08:55:11;;;;;;;1.00;1.00;;;;;;;6.27;34.46;100010.78;5055477;28;20098;-85
2022/03/02 08:57:43;;;;;;;0.90;0.90;;;;;;;6.32;34.22;99991.44;5071892;28;20048;-84
2022/03/02 09:00:13;;;;;;;1.00;1.00;;;;;;;6.91;33.91;100017.94;5072089;28;20045;-84
2022/03/02 09:02:42;;;;;;;0.90;0.90;;;;;;;7.25;33.55;100013.59;5072264;28;20040;-84
2022/03/02 09:05:11;;;;;;;0.98;0.98;;;;;;;7.69;32.79;100015.03;5071466;28;20423;-83
2022/03/02 09:07:39;;;;;;;0.90;0.90;;;;;;;7.70;32.62;100000.56;5071756;28;20047;-84
2022/03/02 09:10:06;;;;;;;0.98;0.98;;;;;;;8.00;31.90;100002.91;5071851;28;20103;-85
2022/03/02 09:12:34;;;;;;;0.95;0.95;;;;;;;8.09;31.29;99998.19;5072298;28;20094;-85
2022/03/02 09:15:05;;;;;;;1.00;1.00;;;;;;;7.94;31.77;99996.50;5072029;28;20052;-84
2022/03/02 09:17:32;;;;;;;1.00;1.00;;;;;;;7.64;31.77;100001.38;5037531;28;20045;-84
2022/03/02 09:19:59;;;;;;;0.90;0.90;;;;;;;7.78;31.90;99991.50;5071762;28;20458;-84
2022/03/02 09:22:29;;;;;;;1.00;1.00;;;;;;;8.35;31.89;99982.06;5038289;28;20052;-84
2022/03/02 09:24:57;;;;;;;1.00;1.00;;;;;;;9.14;30.89;99985.78;5053591;28;20478;-83
2022/03/02 09:27:27;;;;;;;0.90;0.90;;;;;;;9.63;30.45;99981.66;5053761;28;20056;-83
2022/03/02 09:29:58;;;;;;;0.90;0.90;;;;;;;10.13;29.79;99983.69;5053626;28;20151;-83
2022/03/02 09:32:26;;;;;;;0.90;0.90;;;;;;;10.48;29.28;99981.38;5052838;28;20538;-83
2022/03/02 09:34:55;;;;;;;0.90;0.90;;;;;;;10.39;28.67;99971.88;5053950;28;20616;-83
2022/03/02 09:37:27;;;;;;;0.90;0.90;;;;;;;9.92;28.76;99961.38;5075743;28;20064;-85
2022/03/02 09:40:00;;;;;;;0.98;0.98;;;;;;;9.71;29.47;99970.63;5075974;28;20067;-84
2022/03/02 09:42:45;;;;;;;0.88;0.88;;;;;;;10.01;29.64;99969.22;5075545;28;20052;-84
2022/03/02 09:45:12;;;;;;;0.95;0.95;;;;;;;10.43;29.27;99962.28;5084657;28;20060;-84
2022/03/02 09:47:44;;;;;;;0.90;0.90;;;;;;;10.79;28.27;99955.34;5074275;28;20863;-85
2022/03/02 09:50:14;;;;;;;0.90;0.90;;;;;;;10.76;28.55;99943.13;5068748;28;20076;-86
2022/03/02 09:52:45;;;;;;;0.90;0.90;;;;;;;10.86;28.58;99950.69;5085840;28;20044;-87
2022/03/02 09:55:15;;;;;;;0.90;0.90;;;;;;;11.39;27.75;99952.78;5064043;28;20131;-85
2022/03/02 09:57:48;;;;;;;1.00;1.00;;;;;;;11.70;27.49;99948.25;5082661;28;20119;-85
2022/03/02 10:00:18;;;;;;;0.90;0.90;;;;;;;12.04;27.34;99944.06;5071695;28;20044;-85
2022/03/02 10:02:49;;;;;;;0.90;0.90;;;;;;;12.23;26.71;99925.03;5049332;28;20095;-85
2022/03/02 10:05:30;;;;;;;0.90;0.90;;;;;;;12.45;26.05;99928.81;5069754;28;20041;-84
2022/03/02 10:08:03;;;;;;;0.80;0.80;;;;;;;12.76;26.14;99922.25;5082666;28;20075;-84
2022/03/02 10:10:36;;;;;;;0.90;0.90;;;;;;;12.65;25.25;99925.78;5070874;28;20518;-80
2022/03/02 10:13:08;;;;;;;0.90;0.90;;;;;;;12.35;25.87;99920.44;5073054;28;20048;-82
2022/03/02 10:15:37;;;;;;;0.90;0.90;;;;;;;12.72;25.78;99907.53;5058006;28;20071;-84
2022/03/02 10:18:07;;;;;;;0.90;0.90;;;;;;;13.34;25.18;99912.41;5067115;28;20052;-83
2022/03/02 10:20:37;;;;;;;0.90;0.90;;;;;;;13.64;24.41;99908.63;5067874;28;20070;-83
2022/03/02 10:23:34;;;;;;;0.90;0.90;;;;;;;14.03;24.29;99904.19;5076510;28;20045;-81
2022/03/02 10:26:11;;;;;;;0.90;0.90;;;;;;;14.42;23.91;99901.53;5074371;28;20041;-82
2022/03/02 10:28:48;;;;;;;0.80;0.80;;;;;;;14.62;23.90;99903.78;5072180;28;20040;-82
2022/03/02 10:31:28;;;;;;;0.90;0.90;;;;;;;14.71;23.29;99894.16;5059497;28;20053;-82
2022/03/02 10:34:01;;;;;;;0.88;0.88;;;;;;;14.49;23.31;99902.19;5081798;28;20079;-83
2022/03/02 10:36:30;;;;;;;0.90;0.90;;;;;;;14.81;23.25;99893.47;5072965;28;20487;-82
2022/03/02 10:39:00;;;;;;;0.90;0.90;;;;;;;14.95;22.57;99899.34;5071226;28;20792;-84
2022/03/02 10:41:28;;;;;;;0.90;0.90;;;;;;;14.91;22.74;99887.31;5077452;28;20095;-82
2022/03/02 10:44:05;;;;;;;0.90;0.90;;;;;;;14.95;22.82;99888.47;5079945;28;20048;-82
2022/03/02 10:46:40;;;;;;;0.80;0.80;;;;;;;15.01;22.18;99892.91;5081783;28;20170;-82
2022/03/02 10:49:21;;;;;;;0.88;0.88;;;;;;;15.04;22.00;99876.09;5083417;28;20063;-84
2022/03/02 10:51:48;;;;;;;0.90;0.90;;;;;;;15.14;22.04;99878.09;5086983;28;20048;-83
2022/03/02 10:54:22;;;;;;;0.90;0.90;;;;;;;15.53;21.58;99881.56;5083708;28;20055;-83
2022/03/02 10:56:55;;;;;;;0.82;0.82;;;;;;;16.15;21.09;99874.00;5064120;28;20132;-83
2022/03/02 10:59:25;;;;;;;0.80;0.80;;;;;;;16.31;20.62;99873.03;5083044;28;20057;-83
2022/03/02 11:01:53;;;;;;;0.80;0.80;;;;;;;16.17;21.06;99869.09;5074130;28;20553;-83
2022/03/02 11:04:22;;;;;;;0.80;0.80;;;;;;;16.24;20.88;99862.34;5073420;28;20139;-83
2022/03/02 11:06:55;;;;;;;0.88;0.88;;;;;;;16.35;20.88;99857.78;5079265;28;20060;-84
2022/03/02 11:09:49;;;;;;;0.80;0.80;;;;;;;16.57;20.20;99851.41;5088789;28;20410;-83
2022/03/02 11:12:20;;;;;;;0.90;0.90;;;;;;;16.46;20.69;99851.34;5067662;28;20044;-83
2022/03/02 11:14:57;;;;;;;0.70;0.70;;;;;;;16.93;20.05;99851.63;5071708;28;20050;-83
2022/03/02 11:17:27;;;;;;;0.80;0.80;;;;;;;17.02;20.18;99844.59;5088471;28;20159;-84
2022/03/02 11:19:56;;;;;;;0.70;0.70;;;;;;;17.47;19.33;99838.47;5086535;28;20091;-86
2022/03/02 11:22:28;;;;;;;0.80;0.80;;;;;;;16.99;20.03;99840.50;5078612;28;20106;-87
2022/03/02 11:24:57;;;;;;;0.70;0.70;;;;;;;16.74;20.44;99832.97;5063337;28;20048;-84
2022/03/02 11:27:38;;;;;;;0.70;0.70;;;;;;;16.38;19.82;99840.94;5082959;28;20044;-85
2022/03/02 11:30:15;;;;;;;0.80;0.80;;;;;;;16.29;20.10;99828.91;5079625;28;20048;-85
2022/03/02 11:32:47;;;;;;;0.80;0.80;;;;;;;16.36;19.62;99821.31;5080492;28;20049;-84
2022/03/02 11:35:19;;;;;;;0.80;0.80;;;;;;;15.95;20.46;99820.19;5073643;28;20067;-84
2022/03/02 11:37:57;;;;;;;0.80;0.80;;;;;;;16.12;19.81;99818.16;5078463;28;20463;-83
2022/03/02 11:40:44;;;;;;;0.80;0.80;;;;;;;16.04;20.02;99808.56;5045184;28;20056;-84
2022/03/02 11:43:25;;;;;;;0.80;0.80;;;;;;;16.61;19.45;99817.94;5085293;28;20094;-84